createdAt,value
2023-01-20T00:02:41.266Z,100267.91
2023-01-20T00:05:26.465Z,100275.63
2023-01-20T00:08:11.278Z,100282.22
2023-01-20T00:10:57.059Z,100284.63
2023-01-20T00:13:42.300Z,100289.59
2023-01-20T00:16:28.165Z,100287.88
2023-01-20T00:19:14.357Z,100287.94
2023-01-20T00:21:59.751Z,100288.75
2023-01-20T00:24:44.848Z,100291.66
2023-01-20T00:27:29.699Z,100296.13
2023-01-20T00:30:14.650Z,100288.50
2023-01-20T00:32:59.436Z,100291.50
2023-01-20T00:35:44.420Z,100297.50
2023-01-20T00:38:29.615Z,100301.69
2023-01-20T00:41:15.552Z,100290.34
2023-01-20T00:44:00.421Z,100297.72
2023-01-20T00:46:45.456Z,100297.72
2023-01-20T00:49:30.805Z,100299.63
2023-01-20T00:52:16.087Z,100303.53
2023-01-20T00:55:00.958Z,100301.19
2023-01-20T00:57:46.249Z,100301.75
2023-01-20T01:00:31.567Z,100306.41
2023-01-20T01:03:18.495Z,100303.06
2023-01-20T01:06:12.049Z,100309.56
2023-01-20T01:08:57.598Z,100307.50
2023-01-20T01:11:43.034Z,100309.06
2023-01-20T01:14:30.794Z,100319.22
2023-01-20T01:17:15.714Z,100315.34
2023-01-20T01:20:00.612Z,100327.44
2023-01-20T01:22:45.409Z,100330.56
2023-01-20T01:25:30.519Z,100333.13
2023-01-20T01:28:15.737Z,100335.31
2023-01-20T01:31:02.732Z,100338.09
2023-01-20T01:33:48.656Z,100343.91
2023-01-20T01:36:33.460Z,100344.13
2023-01-20T01:39:18.614Z,100340.69
2023-01-20T01:42:08.763Z,100340.28
2023-01-20T01:45:12.402Z,100355.97
2023-01-20T01:48:18.779Z,100357.44
2023-01-20T01:51:30.175Z,100363.03
2023-01-20T01:54:18.378Z,100363.56
2023-01-20T01:57:07.328Z,100369.16
2023-01-20T01:59:52.682Z,100372.16
2023-01-20T02:02:38.273Z,100373.91
2023-01-20T02:05:25.483Z,100372.00
2023-01-20T02:08:11.192Z,100379.88
2023-01-20T02:10:56.212Z,100376.28
2023-01-20T02:13:41.577Z,100386.00
2023-01-20T02:16:32.138Z,100386.69
2023-01-20T02:19:49.833Z,100394.66
2023-01-20T02:23:13.247Z,100392.22
2023-01-20T02:26:06.987Z,100395.47
2023-01-20T02:29:22.937Z,100394.50
2023-01-20T02:32:23.456Z,100412.13
2023-01-20T02:35:20.073Z,100414.22
2023-01-20T02:38:14.685Z,100404.22
2023-01-20T02:41:06.148Z,100403.06
2023-01-20T02:44:00.381Z,100410.97
2023-01-20T02:47:12.271Z,100419.13
2023-01-20T02:50:21.341Z,100423.31
2023-01-20T02:53:08.454Z,100424.66
2023-01-20T02:55:54.346Z,100424.81
2023-01-20T02:58:48.845Z,100431.88
2023-01-20T03:01:46.290Z,100424.72
2023-01-20T03:04:40.570Z,100425.94
2023-01-20T03:07:29.432Z,100428.75
2023-01-20T03:10:19.249Z,100438.56
2023-01-20T03:13:16.630Z,100437.25
2023-01-20T03:16:10.010Z,100444.09
2023-01-20T03:18:55.388Z,100450.66
2023-01-20T03:21:40.566Z,100440.47
2023-01-20T03:24:29.318Z,100455.84
2023-01-20T03:27:14.263Z,100465.00
2023-01-20T03:29:59.368Z,100458.97
2023-01-20T03:32:48.346Z,100453.16
2023-01-20T03:35:34.144Z,100458.16
2023-01-20T03:38:19.574Z,100460.97
2023-01-20T03:41:13.789Z,100467.28
2023-01-20T03:44:31.179Z,100463.53
2023-01-20T03:47:31.254Z,100471.59
2023-01-20T03:50:16.044Z,100473.84
2023-01-20T03:53:36.269Z,100478.25
2023-01-20T03:56:36.564Z,100482.13
2023-01-20T03:59:23.422Z,100485.72
2023-01-20T04:02:10.348Z,100481.69
2023-01-20T04:04:56.814Z,100486.94
2023-01-20T04:07:45.132Z,100478.69
2023-01-20T04:10:32.583Z,100477.47
2023-01-20T04:13:17.638Z,100480.47
2023-01-20T04:16:09.059Z,100485.13
2023-01-20T04:18:54.554Z,100487.56
2023-01-20T04:21:45.208Z,100494.56
2023-01-20T04:24:38.054Z,100495.72
2023-01-20T04:27:23.389Z,100502.91
2023-01-20T04:30:09.835Z,100494.31
2023-01-20T04:32:55.018Z,100492.47
2023-01-20T04:35:39.979Z,100482.66
2023-01-20T04:38:24.977Z,100480.22
2023-01-20T04:41:11.537Z,100484.59
2023-01-20T04:43:56.693Z,100486.06
2023-01-20T04:46:41.565Z,100484.06
2023-01-20T04:49:27.017Z,100484.41
2023-01-20T04:52:11.861Z,100494.84
2023-01-20T04:54:56.731Z,100485.53
2023-01-20T04:57:42.177Z,100496.50
2023-01-20T05:00:27.604Z,100494.84
2023-01-20T05:03:12.766Z,100491.31
2023-01-20T05:05:57.581Z,100492.03
2023-01-20T05:08:42.872Z,100492.28
2023-01-20T05:11:28.390Z,100493.16
2023-01-20T05:14:13.893Z,100506.22
2023-01-20T05:16:59.054Z,100502.97
2023-01-20T05:19:43.859Z,100504.47
2023-01-20T05:22:29.311Z,100505.53
2023-01-20T05:25:14.770Z,100512.63
2023-01-20T05:27:59.953Z,100514.78
2023-01-20T05:30:44.904Z,100508.59
2023-01-20T05:33:30.257Z,100514.47
2023-01-20T05:36:15.730Z,100511.31
2023-01-20T05:39:00.591Z,100514.47
2023-01-20T05:41:46.444Z,100509.38
2023-01-20T05:44:31.576Z,100516.84
2023-01-20T05:47:16.764Z,100516.94
2023-01-20T05:50:02.068Z,100517.63
2023-01-20T05:52:49.313Z,100522.78
2023-01-20T05:55:34.328Z,100530.34
2023-01-20T05:58:19.035Z,100524.47
2023-01-20T06:01:09.980Z,100528.94
2023-01-20T06:03:55.315Z,100528.03
2023-01-20T06:06:40.627Z,100531.31
2023-01-20T06:09:25.994Z,100537.28
2023-01-20T06:12:11.064Z,100534.03
2023-01-20T06:14:55.942Z,100539.38
2023-01-20T06:17:41.397Z,100542.53
2023-01-20T06:20:26.866Z,100544.38
2023-01-20T06:23:11.823Z,100549.19
2023-01-20T06:26:10.538Z,100547.78
2023-01-20T06:28:59.520Z,100547.78
2023-01-20T06:31:44.650Z,100547.25
2023-01-20T06:34:29.895Z,100549.47
2023-01-20T06:37:14.823Z,100553.06
2023-01-20T06:40:00.159Z,100558.16
2023-01-20T06:42:44.978Z,100559.19
2023-01-20T06:45:30.606Z,100558.41
2023-01-20T06:48:15.474Z,100559.28
2023-01-20T06:51:04.371Z,100557.69
2023-01-20T06:53:49.677Z,100564.38
2023-01-20T06:56:34.700Z,100567.84
2023-01-20T06:59:19.872Z,100573.03
2023-01-20T07:02:06.113Z,100580.41
2023-01-20T07:04:52.311Z,100575.31
2023-01-20T07:07:37.331Z,100587.16
2023-01-20T07:10:22.221Z,100583.59
2023-01-20T07:13:07.159Z,100582.00
2023-01-20T07:15:53.140Z,100582.34
2023-01-20T07:18:38.957Z,100595.84
2023-01-20T07:21:26.424Z,100593.22
2023-01-20T07:24:11.755Z,100598.31
2023-01-20T07:26:56.924Z,100596.81
2023-01-20T07:29:42.025Z,100604.63
2023-01-20T07:32:30.526Z,100608.13
2023-01-20T07:35:16.453Z,100612.19
2023-01-20T07:38:01.610Z,100614.63
2023-01-20T07:40:47.088Z,100623.75
2023-01-20T07:43:32.945Z,100626.94
2023-01-20T07:46:19.380Z,100630.00
2023-01-20T07:49:04.702Z,100635.31
2023-01-20T07:51:50.264Z,100636.94
2023-01-20T07:54:35.487Z,100651.84
2023-01-20T07:57:20.435Z,100650.41
2023-01-20T08:00:06.492Z,100659.19
2023-01-20T08:02:51.750Z,100668.97
2023-01-20T08:05:36.529Z,100673.59
2023-01-20T08:08:23.102Z,100666.13
2023-01-20T08:11:10.311Z,100666.47
2023-01-20T08:13:55.659Z,100675.44
2023-01-20T08:16:40.545Z,100673.06
2023-01-20T08:19:29.036Z,100682.28
2023-01-20T08:22:14.097Z,100687.88
2023-01-20T08:25:02.277Z,100694.13
2023-01-20T08:27:48.540Z,100689.66
2023-01-20T08:30:33.746Z,100700.19
2023-01-20T08:33:19.275Z,100699.59
2023-01-20T08:36:16.403Z,100707.09
2023-01-20T08:39:03.544Z,100700.13
2023-01-20T08:41:50.147Z,100702.84
2023-01-20T08:44:35.444Z,100702.91
2023-01-20T08:47:20.298Z,100703.25
2023-01-20T08:50:07.084Z,100699.66
2023-01-20T08:52:52.446Z,100716.09
2023-01-20T08:55:37.759Z,100714.66
2023-01-20T08:58:25.201Z,100710.66
2023-01-20T09:01:23.102Z,100712.41
2023-01-20T09:04:08.206Z,100715.13
2023-01-20T09:06:53.142Z,100715.13
2023-01-20T09:09:39.090Z,100718.13
2023-01-20T09:12:24.386Z,100720.44
2023-01-20T09:15:11.549Z,100716.69
2023-01-20T09:17:56.664Z,100725.03
2023-01-20T09:20:41.731Z,100726.88
2023-01-20T09:23:26.770Z,100725.03
2023-01-20T09:26:13.285Z,100727.78
2023-01-20T09:28:59.747Z,100730.75
2023-01-20T09:31:49.204Z,100728.72
2023-01-20T09:34:34.648Z,100728.28
2023-01-20T09:37:19.762Z,100731.19
2023-01-20T09:40:05.621Z,100729.09
2023-01-20T09:43:12.211Z,100729.69
2023-01-20T09:46:20.247Z,100723.53
2023-01-20T09:49:17.782Z,100725.66
2023-01-20T09:52:15.506Z,100729.78
2023-01-20T09:55:21.424Z,100731.34
2023-01-20T09:58:27.970Z,100726.91
2023-01-20T10:01:16.337Z,100726.63
2023-01-20T10:04:23.194Z,100733.47
2023-01-20T10:07:33.602Z,100734.16
2023-01-20T10:10:35.812Z,100734.66
2023-01-20T10:13:30.109Z,100735.72
2023-01-20T10:16:23.508Z,100741.94
2023-01-20T10:19:21.097Z,100744.25
2023-01-20T10:22:12.367Z,100745.19
2023-01-20T10:25:17.435Z,100743.63
2023-01-20T10:28:14.095Z,100744.66
2023-01-20T10:31:05.157Z,100745.19
2023-01-20T10:33:53.918Z,100736.84
2023-01-20T10:36:44.087Z,100733.91
2023-01-20T10:39:51.504Z,100730.59
2023-01-20T10:42:36.608Z,100731.31
2023-01-20T10:45:29.679Z,100735.53
2023-01-20T10:48:56.008Z,100729.47
2023-01-20T10:51:46.243Z,100722.97
2023-01-20T10:54:50.477Z,100727.56
2023-01-20T10:57:36.280Z,100728.16
2023-01-20T11:00:32.364Z,100724.41
2023-01-20T11:03:23.090Z,100723.72
2023-01-20T11:06:19.433Z,100722.03
2023-01-20T11:09:29.437Z,100724.09
2023-01-20T11:12:17.301Z,100718.22
2023-01-20T11:15:14.298Z,100709.78
2023-01-20T11:18:14.477Z,100705.91
2023-01-20T11:21:05.784Z,100702.00
2023-01-20T11:23:52.730Z,100698.47
2023-01-20T11:26:38.330Z,100679.84
2023-01-20T11:29:28.353Z,100673.94
2023-01-20T11:32:32.412Z,100659.38
2023-01-20T11:35:24.026Z,100660.31
2023-01-20T11:38:23.973Z,100647.97
2023-01-20T11:41:19.954Z,100635.53
2023-01-20T11:44:06.501Z,100626.63
2023-01-20T11:46:51.772Z,100630.34
2023-01-20T11:49:37.246Z,100618.00
2023-01-20T11:52:22.551Z,100618.72
2023-01-20T11:55:18.016Z,100597.28
2023-01-20T11:58:04.032Z,100582.81
2023-01-20T12:00:51.480Z,100580.16
2023-01-20T12:03:39.612Z,100580.81
2023-01-20T12:06:28.591Z,100577.63
2023-01-20T12:09:19.881Z,100579.34
2023-01-20T12:12:15.963Z,100556.09
2023-01-20T12:15:18.147Z,100551.97
2023-01-20T12:18:23.203Z,100553.41
2023-01-20T12:21:13.250Z,100557.47
2023-01-20T12:24:42.068Z,100568.38
2023-01-20T12:27:30.101Z,100579.59
2023-01-20T12:30:54.086Z,100567.41
2023-01-20T12:33:48.050Z,100574.81
2023-01-20T12:37:11.461Z,100583.91
2023-01-20T12:40:11.197Z,100608.47
2023-01-20T12:43:10.559Z,100620.16
2023-01-20T12:46:07.554Z,100614.78
2023-01-20T12:49:05.149Z,100600.22
2023-01-20T12:52:10.906Z,100599.78
2023-01-20T12:55:22.032Z,100588.56
2023-01-20T12:58:17.005Z,100592.91
2023-01-20T13:01:24.125Z,100608.41
2023-01-20T13:04:39.957Z,100609.47
2023-01-20T13:07:36.404Z,100600.16
2023-01-20T13:10:51.668Z,100611.63
2023-01-20T13:13:48.039Z,100602.19
2023-01-20T13:16:59.812Z,100610.38
2023-01-20T13:19:45.672Z,100582.63
2023-01-20T13:22:31.330Z,100564.84
2023-01-20T13:25:17.164Z,100546.19
2023-01-20T13:28:02.747Z,100536.84
2023-01-20T13:30:49.904Z,100541.25
2023-01-20T13:33:40.380Z,100539.50
2023-01-20T13:36:25.843Z,100552.78
2023-01-20T13:39:29.706Z,100563.31
2023-01-20T13:42:29.903Z,100588.69
2023-01-20T13:45:16.591Z,100617.31
2023-01-20T13:48:22.250Z,100637.06
2023-01-20T13:51:26.597Z,100649.34
2023-01-20T13:54:23.878Z,100643.56
2023-01-20T13:57:21.517Z,100645.50
2023-01-20T14:00:12.210Z,100655.13
2023-01-20T14:02:57.435Z,100650.19
2023-01-20T14:05:42.845Z,100657.50
2023-01-20T14:08:31.044Z,100640.00
2023-01-20T14:11:22.017Z,100644.78
2023-01-20T14:14:14.779Z,100650.28
2023-01-20T14:17:01.916Z,100630.72
2023-01-20T14:19:55.379Z,100629.97
2023-01-20T14:22:40.810Z,100629.06
2023-01-20T14:25:26.855Z,100668.75
2023-01-20T14:28:19.233Z,100686.97
2023-01-20T14:31:16.677Z,100719.97
2023-01-20T14:34:31.219Z,100723.44
2023-01-20T14:37:37.652Z,100741.69
2023-01-20T14:40:29.917Z,100732.72
2023-01-20T14:43:18.293Z,100738.94
2023-01-20T14:46:03.959Z,100751.44
2023-01-20T14:48:50.412Z,100748.59
2023-01-20T14:51:35.588Z,100779.78
2023-01-20T14:54:27.446Z,100789.09
2023-01-20T14:57:29.387Z,100791.88
2023-01-20T15:00:28.026Z,100781.28
2023-01-20T15:03:17.984Z,100793.00
2023-01-20T15:06:19.150Z,100791.31
2023-01-20T15:09:24.616Z,100798.44
2023-01-20T15:12:39.025Z,100813.44
2023-01-20T15:15:27.609Z,100821.16
2023-01-20T15:18:20.060Z,100828.19
2023-01-20T15:21:17.200Z,100836.78
2023-01-20T15:24:34.920Z,100841.28
2023-01-20T15:27:32.024Z,100853.16
2023-01-20T15:30:20.580Z,100854.69
2023-01-20T15:33:08.998Z,100835.38
2023-01-20T15:35:57.023Z,100837.13
2023-01-20T15:38:42.281Z,100836.53
2023-01-20T15:41:27.407Z,100846.53
2023-01-20T15:44:12.300Z,100845.28
2023-01-20T15:46:58.225Z,100855.09
2023-01-20T15:49:43.341Z,100862.94
2023-01-20T15:52:28.512Z,100881.50
2023-01-20T15:55:15.930Z,100894.47
2023-01-20T15:58:01.243Z,100901.13
2023-01-20T16:00:46.152Z,100915.56
2023-01-20T16:03:31.607Z,100940.09
2023-01-20T16:06:18.692Z,100955.41
2023-01-20T16:09:15.726Z,100970.53
2023-01-20T16:12:00.522Z,100988.66
2023-01-20T16:14:46.150Z,101007.91
2023-01-20T16:17:32.982Z,101023.13
2023-01-20T16:20:21.709Z,101032.78
2023-01-20T16:23:07.209Z,101039.66
2023-01-20T16:25:51.999Z,101049.88
2023-01-20T16:28:37.094Z,101057.47
2023-01-20T16:31:23.506Z,101069.03
2023-01-20T16:34:08.470Z,101086.59
2023-01-20T16:36:53.293Z,101084.28
2023-01-20T16:39:38.143Z,101097.22
2023-01-20T16:42:23.091Z,101104.19
2023-01-20T16:45:28.764Z,101119.19
2023-01-20T16:48:14.064Z,101132.06
2023-01-20T16:50:59.644Z,101136.06
2023-01-20T16:53:45.187Z,101148.63
2023-01-20T16:56:31.817Z,101156.06
2023-01-20T16:59:16.802Z,101172.53
2023-01-20T17:02:01.663Z,101171.34
2023-01-20T17:04:47.272Z,101183.88
2023-01-20T17:07:32.563Z,101182.59
2023-01-20T17:10:18.511Z,101188.28
2023-01-20T17:13:03.853Z,101196.13
2023-01-20T17:15:49.009Z,101190.84
2023-01-20T17:18:34.371Z,101200.72
2023-01-20T17:21:20.805Z,101204.63
2023-01-20T17:24:06.297Z,101207.97
2023-01-20T17:26:51.355Z,101208.47
2023-01-20T17:29:36.655Z,101216.78
2023-01-20T17:32:21.468Z,101212.06
2023-01-20T17:35:06.942Z,101204.09
2023-01-20T17:37:52.284Z,101216.34
2023-01-20T17:40:37.094Z,101226.63
2023-01-20T17:43:22.599Z,101226.13
2023-01-20T17:46:14.064Z,101238.16
2023-01-20T17:49:00.519Z,101241.41
2023-01-20T17:51:45.563Z,101249.59
2023-01-20T17:54:30.761Z,101258.09
2023-01-20T17:57:15.728Z,101255.69
2023-01-20T18:00:00.662Z,101265.00
2023-01-20T18:02:45.973Z,101272.91
2023-01-20T18:05:31.077Z,101272.69
2023-01-20T18:08:16.458Z,101282.59
2023-01-20T18:11:06.031Z,101297.09
2023-01-20T18:13:53.782Z,101298.19
2023-01-20T18:16:40.836Z,101306.84
2023-01-20T18:19:26.269Z,101312.69
2023-01-20T18:22:11.228Z,101323.44
2023-01-20T18:24:56.682Z,101331.53
2023-01-20T18:27:42.066Z,101339.16
2023-01-20T18:30:27.606Z,101335.50
2023-01-20T18:33:13.116Z,101347.78
2023-01-20T18:35:58.292Z,101345.13
2023-01-20T18:38:48.656Z,101353.00
2023-01-20T18:41:37.412Z,101358.97
2023-01-20T18:44:22.854Z,101360.16
2023-01-20T18:47:08.009Z,101365.50
2023-01-20T18:49:52.879Z,101365.66
2023-01-20T18:52:38.333Z,101374.75
2023-01-20T18:55:23.769Z,101377.84
2023-01-20T18:58:08.508Z,101382.59
2023-01-20T19:00:53.546Z,101387.00
2023-01-20T19:03:39.095Z,101396.03
2023-01-20T19:06:26.673Z,101401.22
2023-01-20T19:09:13.082Z,101402.66
2023-01-20T19:11:58.273Z,101416.66
2023-01-20T19:14:43.459Z,101417.91
2023-01-20T19:17:28.361Z,101419.44
2023-01-20T19:20:13.267Z,101420.00
2023-01-20T19:22:58.377Z,101434.66
2023-01-20T19:25:43.076Z,101426.75
2023-01-20T19:28:28.178Z,101420.06
2023-01-20T19:31:19.250Z,101432.97
2023-01-20T19:34:05.802Z,101436.81
2023-01-20T19:36:50.767Z,101441.56
2023-01-20T19:39:35.761Z,101451.72
2023-01-20T19:42:21.257Z,101448.59
2023-01-20T19:45:07.288Z,101454.34
2023-01-20T19:47:52.487Z,101447.06
2023-01-20T19:50:37.860Z,101454.31
2023-01-20T19:53:23.269Z,101459.75
2023-01-20T19:56:16.787Z,101465.72
2023-01-20T19:59:01.855Z,101464.34
2023-01-20T20:01:47.350Z,101467.28
2023-01-20T20:04:32.690Z,101473.78
2023-01-20T20:07:17.683Z,101481.78
2023-01-20T20:10:03.868Z,101483.28
2023-01-20T20:12:48.879Z,101483.53
2023-01-20T20:15:33.636Z,101486.25
2023-01-20T20:18:19.123Z,101496.94
2023-01-20T20:21:04.390Z,101501.00
2023-01-20T20:23:55.225Z,101499.75
2023-01-20T20:26:41.842Z,101506.25
2023-01-20T20:29:27.193Z,101503.72
2023-01-20T20:32:12.239Z,101499.78
2023-01-20T20:34:57.682Z,101499.44
2023-01-20T20:37:42.541Z,101508.41
2023-01-20T20:40:27.334Z,101504.38
2023-01-20T20:43:12.675Z,101511.47
2023-01-20T20:46:02.346Z,101515.81
2023-01-20T20:48:47.353Z,101519.59
2023-01-20T20:51:34.456Z,101521.16
2023-01-20T20:54:19.540Z,101532.66
2023-01-20T20:57:05.000Z,101536.94
2023-01-20T20:59:58.885Z,101533.06
2023-01-20T21:02:44.942Z,101537.03
2023-01-20T21:05:30.089Z,101543.75
2023-01-20T21:08:16.135Z,101551.63
2023-01-20T21:11:02.954Z,101552.78
2023-01-20T21:13:48.092Z,101556.31
2023-01-20T21:16:34.211Z,101556.06
2023-01-20T21:19:19.535Z,101569.50
2023-01-20T21:22:04.616Z,101573.41
2023-01-20T21:24:49.909Z,101571.75
2023-01-20T21:27:35.367Z,101573.06
2023-01-20T21:30:21.008Z,101570.28
2023-01-20T21:33:06.037Z,101579.94
2023-01-20T21:35:51.502Z,101590.72
2023-01-20T21:38:36.945Z,101591.47
2023-01-20T21:41:22.210Z,101596.28
2023-01-20T21:44:11.914Z,101604.38
2023-01-20T21:47:02.055Z,101590.97
2023-01-20T21:49:47.126Z,101592.22
2023-01-20T21:52:32.692Z,101597.91
2023-01-20T21:55:19.399Z,101607.94
2023-01-20T21:58:04.409Z,101610.72
2023-01-20T22:00:54.599Z,101608.97
2023-01-20T22:03:40.089Z,101622.91
2023-01-20T22:06:25.433Z,101622.91
2023-01-20T22:09:10.684Z,101621.88
2023-01-20T22:11:55.787Z,101624.53
2023-01-20T22:14:41.032Z,101624.91
2023-01-20T22:17:26.447Z,101634.94
2023-01-20T22:20:12.091Z,101640.13
2023-01-20T22:22:57.480Z,101654.19
2023-01-20T22:25:42.798Z,101655.56
2023-01-20T22:28:32.123Z,101658.25
2023-01-20T22:31:19.290Z,101660.78
2023-01-20T22:34:04.378Z,101670.88
2023-01-20T22:36:49.504Z,101670.38
2023-01-20T22:39:34.967Z,101668.88
2023-01-20T22:42:19.925Z,101669.97
2023-01-20T22:45:06.050Z,101677.09
2023-01-20T22:47:55.084Z,101672.91
2023-01-20T22:50:40.184Z,101691.41
2023-01-20T22:53:25.596Z,101695.81
2023-01-20T22:56:12.918Z,101694.66
2023-01-20T22:58:59.260Z,101691.66
2023-01-20T23:01:44.721Z,101692.28
2023-01-20T23:04:29.627Z,101692.19
2023-01-20T23:07:15.047Z,101703.75
2023-01-20T23:09:59.986Z,101702.94
2023-01-20T23:12:45.424Z,101712.00
2023-01-20T23:15:30.746Z,101707.31
2023-01-20T23:18:16.152Z,101719.59
2023-01-20T23:21:01.381Z,101725.88
2023-01-20T23:23:47.175Z,101742.38
2023-01-20T23:26:32.570Z,101736.91
2023-01-20T23:29:17.784Z,101740.66
2023-01-20T23:32:03.917Z,101742.44
2023-01-20T23:34:49.130Z,101742.84
2023-01-20T23:37:34.351Z,101752.19
2023-01-20T23:40:19.436Z,101750.09
2023-01-20T23:43:04.725Z,101750.88
2023-01-20T23:45:50.056Z,101754.19
2023-01-20T23:48:36.169Z,101758.03
2023-01-20T23:51:21.199Z,101760.28
2023-01-20T23:54:06.266Z,101759.25
2023-01-20T23:56:51.074Z,101766.34
2023-01-20T23:59:35.933Z,101773.06
